Aviation Digital Data Service (ADDS)

Output produced by METARs form (0504 UTC 20 October 2017)
found at http://aviationweather.gov/adds/metars/
 
KRME 192330Z 2000/2024 26005KT P6SM BKN060 
     FM200500 VRB03KT P6SM BKN200 
     FM201600 30007KT P6SM SKC